Jacksonville Beach, Florida
Current Conditions -  °F | °C
As of 2:52 PM on Saturday 20 Dec 2014 (Local Time) from KNRB Reporting Station
Scattered Clouds Scattered Clouds  
Wind Chill: 62°   Ceiling: Unl
Heat Index: 62°   Visibility: 10mi
Dew Point: 56°   Wind: 12mph
Humidity: 80%   Direction: 20°NNE
Pressure: 30.09"   Gusts: 21mph
Location:  30.29°N, 81.39°W
Report Text: KNRB 201952Z AUTO 02010G18KT 10SM SCT009 17/13 A3009 RMK AO2 SLP189 T01670133 $
Loading
Personal Weather Stations






























Interactive Weather Map New forecast layout! Learn more

10-Day Weather Forecast

Advertisements
Track Severe Weather on mobile